createdAt,value
2018-02-06T00:00:24.365Z,1022.36
2018-02-06T00:01:24.317Z,1022.32
2018-02-06T00:02:24.643Z,1022.26
2018-02-06T00:03:24.348Z,1022.28
2018-02-06T00:04:24.305Z,1022.25
2018-02-06T00:05:24.305Z,1022.29
2018-02-06T00:06:24.356Z,1022.3
2018-02-06T00:07:24.422Z,1022.21
2018-02-06T00:08:24.467Z,1022.21
2018-02-06T00:09:24.360Z,1022.15
2018-02-06T00:10:24.316Z,1022.17
2018-02-06T00:11:24.357Z,1022.13
2018-02-06T00:12:24.325Z,1022.1
2018-02-06T00:13:24.378Z,1022.12
2018-02-06T00:14:24.382Z,1022.09
2018-02-06T00:15:24.310Z,1022.03
2018-02-06T00:16:24.338Z,1022
2018-02-06T00:17:24.471Z,1022.01
2018-02-06T00:18:24.280Z,1021.94
2018-02-06T00:19:24.312Z,1021.95
2018-02-06T00:20:24.321Z,1021.91
2018-02-06T00:21:24.343Z,1021.89
2018-02-06T00:22:24.660Z,1021.87
2018-02-06T00:23:24.340Z,1021.89
2018-02-06T00:24:24.340Z,1021.82
2018-02-06T00:25:24.321Z,1021.86
2018-02-06T00:26:24.378Z,1021.84
2018-02-06T00:27:24.339Z,1021.86
2018-02-06T00:28:24.356Z,1021.85
2018-02-06T00:29:24.325Z,1021.83
2018-02-06T00:30:24.318Z,1021.76
2018-02-06T00:31:24.320Z,1021.69
2018-02-06T00:32:24.376Z,1021.7
2018-02-06T00:33:24.348Z,1021.65
2018-02-06T00:34:24.364Z,1021.72
2018-02-06T00:35:24.320Z,1021.67
2018-02-06T00:36:24.351Z,1021.63
2018-02-06T00:39:24.404Z,1021.62
2018-02-06T00:40:24.362Z,1021.62
2018-02-06T00:41:24.443Z,1021.59
2018-02-06T00:42:24.412Z,1021.62
2018-02-06T00:43:24.315Z,1021.58
2018-02-06T00:44:24.351Z,1021.53
2018-02-06T00:45:24.308Z,1021.58
2018-02-06T00:46:24.467Z,1021.54
2018-02-06T00:47:24.391Z,1021.48
2018-02-06T00:48:24.354Z,1021.49
2018-02-06T00:49:24.349Z,1021.48
2018-02-06T00:50:24.364Z,1021.51
2018-02-06T00:51:24.420Z,1021.51
2018-02-06T00:52:24.421Z,1021.44
2018-02-06T00:55:24.340Z,1021.47
2018-02-06T00:56:24.323Z,1021.42
2018-02-06T00:57:24.364Z,1021.43
2018-02-06T00:58:24.310Z,1021.46
2018-02-06T00:59:24.408Z,1021.42
2018-02-06T01:00:24.155Z,1021.42
2018-02-06T01:01:24.191Z,1021.39
2018-02-06T01:02:24.198Z,1021.41
2018-02-06T01:03:24.204Z,1021.4
2018-02-06T01:04:24.235Z,1021.4
2018-02-06T01:05:24.206Z,1021.47
2018-02-06T01:06:24.213Z,1021.43
2018-02-06T01:07:24.188Z,1021.45
2018-02-06T01:08:24.209Z,1021.41
2018-02-06T01:09:24.541Z,1021.45
2018-02-06T01:10:24.187Z,1021.44
2018-02-06T01:11:24.182Z,1021.42
2018-02-06T01:12:24.189Z,1021.42
2018-02-06T01:13:24.195Z,1021.45
2018-02-06T01:14:24.223Z,1021.43
2018-02-06T01:15:24.321Z,1021.41
2018-02-06T01:18:24.268Z,1021.38
2018-02-06T01:19:24.282Z,1021.32
2018-02-06T01:20:24.211Z,1021.33
2018-02-06T01:21:24.189Z,1021.28
2018-02-06T01:22:24.217Z,1021.33
2018-02-06T01:23:24.269Z,1021.29
2018-02-06T01:24:24.578Z,1021.31
2018-02-06T01:25:24.188Z,1021.33
2018-02-06T01:26:24.184Z,1021.27
2018-02-06T01:27:24.220Z,1021.33
2018-02-06T01:28:24.222Z,1021.3
2018-02-06T01:29:24.267Z,1021.25
2018-02-06T01:30:24.263Z,1021.23
2018-02-06T01:31:24.190Z,1021.25
2018-02-06T01:32:24.224Z,1021.23
2018-02-06T01:33:24.193Z,1021.23
2018-02-06T01:34:24.228Z,1021.19
2018-02-06T01:35:24.320Z,1021.21
2018-02-06T01:36:24.241Z,1021.19
2018-02-06T01:37:24.247Z,1021.12
2018-02-06T01:38:24.213Z,1021.17
2018-02-06T01:39:24.189Z,1021.09
2018-02-06T01:40:24.253Z,1021.04
2018-02-06T01:41:24.195Z,1020.96
2018-02-06T01:42:24.202Z,1020.98
2018-02-06T01:43:24.211Z,1020.91
2018-02-06T01:44:24.230Z,1020.92
2018-02-06T01:45:24.273Z,1020.86
2018-02-06T01:46:24.196Z,1020.81
2018-02-06T01:47:24.179Z,1020.81
2018-02-06T01:48:24.278Z,1020.71
2018-02-06T01:49:24.189Z,1020.75
2018-02-06T01:50:24.263Z,1020.69
2018-02-06T01:51:24.206Z,1020.64
2018-02-06T01:52:24.222Z,1020.68
2018-02-06T01:53:24.218Z,1020.61
2018-02-06T01:54:24.252Z,1020.59
2018-02-06T01:55:24.561Z,1020.62
2018-02-06T01:56:24.222Z,1020.59
2018-02-06T01:57:24.209Z,1020.57
2018-02-06T01:58:24.219Z,1020.52
2018-02-06T01:59:24.213Z,1020.51
2018-02-06T02:00:24.236Z,1020.49
2018-02-06T02:01:24.247Z,1020.42
2018-02-06T02:02:24.203Z,1020.45
2018-02-06T02:03:24.213Z,1020.48
2018-02-06T02:04:24.237Z,1020.46
2018-02-06T02:05:24.190Z,1020.4
2018-02-06T02:06:24.233Z,1020.38
2018-02-06T02:07:24.195Z,1020.39
2018-02-06T02:08:24.186Z,1020.36
2018-02-06T02:09:24.168Z,1020.36
2018-02-06T02:10:24.225Z,1020.27
2018-02-06T02:11:24.211Z,1020.27
2018-02-06T02:12:24.238Z,1020.29
2018-02-06T02:13:24.226Z,1020.21
2018-02-06T02:14:24.175Z,1020.19
2018-02-06T02:15:24.174Z,1020.18
2018-02-06T02:16:24.175Z,1020.2
2018-02-06T02:17:24.249Z,1020.26
2018-02-06T02:18:24.231Z,1020.25
2018-02-06T02:19:24.212Z,1020.26
2018-02-06T02:20:24.229Z,1020.22
2018-02-06T02:21:24.187Z,1020.16
2018-02-06T02:22:24.198Z,1020.13
2018-02-06T02:23:24.198Z,1020.12
2018-02-06T02:24:24.238Z,1020.13
2018-02-06T02:25:24.176Z,1020.09
2018-02-06T02:26:24.218Z,1020.07
2018-02-06T02:27:24.229Z,1020.05
2018-02-06T02:28:24.336Z,1020.04
2018-02-06T02:29:24.174Z,1020.01
2018-02-06T02:30:24.183Z,1019.99
2018-02-06T02:31:24.199Z,1020.01
2018-02-06T02:32:24.160Z,1019.97
2018-02-06T02:33:25.203Z,1020.01
2018-02-06T02:34:24.853Z,1020.05
2018-02-06T02:35:24.925Z,1020.07
2018-02-06T02:36:24.878Z,1020
2018-02-06T02:37:24.889Z,1019.99
2018-02-06T02:38:24.852Z,1019.99
2018-02-06T02:39:24.949Z,1020.02
2018-02-06T02:40:24.879Z,1020.04
2018-02-06T02:41:24.884Z,1019.97
2018-02-06T04:39:24.991Z,1019.15
2018-02-06T04:40:24.975Z,1019.12
2018-02-06T04:41:25.030Z,1019.16
2018-02-06T04:42:25.046Z,1019.13
2018-02-06T04:43:25.121Z,1019.12
2018-02-06T04:44:25.207Z,1019.1
2018-02-06T04:45:25.008Z,1019.07
2018-02-06T04:46:25.011Z,1019.13
2018-02-06T04:47:25.013Z,1019.1
2018-02-06T04:48:24.994Z,1019.11
2018-02-06T04:49:25.063Z,1019.08
2018-02-06T04:50:24.999Z,1019.05
2018-02-06T04:51:25.018Z,1019.02
2018-02-06T04:52:24.982Z,1019.02
2018-02-06T04:53:24.957Z,1019
2018-02-06T04:54:24.959Z,1018.98
2018-02-06T04:55:25.032Z,1018.91
2018-02-06T04:56:25.004Z,1018.85
2018-02-06T04:57:25.013Z,1018.85
2018-02-06T04:58:24.986Z,1018.77
2018-02-06T04:59:24.993Z,1018.78
2018-02-06T05:02:25.021Z,1018.76
2018-02-06T05:03:25.006Z,1018.77
2018-02-06T05:04:25.082Z,1018.86
2018-02-06T05:05:24.948Z,1018.79
2018-02-06T05:06:24.968Z,1018.82
2018-02-06T05:07:24.989Z,1018.84
2018-02-06T05:08:24.883Z,1018.83
2018-02-06T05:09:24.888Z,1018.86
2018-02-06T05:10:24.848Z,1018.84
2018-02-06T05:11:24.856Z,1018.85
2018-02-06T05:12:24.891Z,1018.89
2018-02-06T05:13:24.844Z,1018.89
2018-02-06T05:14:24.955Z,1018.88
2018-02-06T05:15:24.918Z,1018.84
2018-02-06T05:16:24.902Z,1018.83
2018-02-06T05:17:24.891Z,1018.78
2018-02-06T05:18:24.897Z,1018.75
2018-02-06T05:19:24.887Z,1018.7
2018-02-06T05:20:24.893Z,1018.79
2018-02-06T05:21:24.885Z,1018.81
2018-02-06T05:22:24.890Z,1018.8
2018-02-06T05:23:24.850Z,1018.75
2018-02-06T05:24:24.948Z,1018.72
2018-02-06T05:25:24.895Z,1018.76
2018-02-06T05:26:24.890Z,1018.71
2018-02-06T05:27:24.862Z,1018.69
2018-02-06T05:28:24.890Z,1018.71
2018-02-06T05:29:24.974Z,1018.69
2018-02-06T05:30:24.881Z,1018.7
2018-02-06T05:31:24.941Z,1018.67
2018-02-06T05:32:24.907Z,1018.66
2018-02-06T05:33:24.876Z,1018.67
2018-02-06T05:34:24.932Z,1018.67
2018-02-06T05:35:24.929Z,1018.63
2018-02-06T05:36:24.843Z,1018.62
2018-02-06T05:37:24.911Z,1018.62
2018-02-06T05:38:24.883Z,1018.6
2018-02-06T05:39:24.831Z,1018.57
2018-02-06T05:40:24.896Z,1018.54
2018-02-06T05:41:24.834Z,1018.59
2018-02-06T05:42:24.796Z,1018.57
2018-02-06T05:43:24.787Z,1018.52
2018-02-06T05:44:24.828Z,1018.51
2018-02-06T05:45:24.905Z,1018.57
2018-02-06T05:46:24.799Z,1018.48
2018-02-06T05:47:24.859Z,1018.4
2018-02-06T05:48:24.834Z,1018.45
2018-02-06T05:49:24.805Z,1018.37
2018-02-06T05:50:24.827Z,1018.35
2018-02-06T05:51:24.832Z,1018.33
2018-02-06T05:52:24.839Z,1018.33
2018-02-06T05:53:24.897Z,1018.3
2018-02-06T05:54:24.855Z,1018.28
2018-02-06T05:55:24.859Z,1018.27
2018-02-06T05:56:24.869Z,1018.22
2018-02-06T05:57:24.821Z,1018.11
2018-02-06T05:58:24.835Z,1018.09
2018-02-06T05:59:24.808Z,1017.93
2018-02-06T06:00:24.813Z,1017.94
2018-02-06T06:01:24.860Z,1017.98
2018-02-06T06:02:24.872Z,1017.97
2018-02-06T06:03:24.938Z,1018.04
2018-02-06T06:04:24.832Z,1018.07
2018-02-06T06:05:24.848Z,1018.13
2018-02-06T06:06:25.077Z,1018.14
2018-02-06T06:07:24.838Z,1018.08
2018-02-06T06:08:24.948Z,1018.02
2018-02-06T06:09:24.995Z,1017.96
2018-02-06T06:10:25.005Z,1017.95
2018-02-06T06:11:24.999Z,1017.91
2018-02-06T06:12:24.994Z,1017.9
2018-02-06T06:13:24.950Z,1017.92
2018-02-06T06:14:25.041Z,1018.04
2018-02-06T06:15:24.976Z,1018.01
2018-02-06T06:16:25.013Z,1018.04
2018-02-06T06:17:25.026Z,1018.08
2018-02-06T06:18:24.947Z,1018.03
2018-02-06T06:19:25.039Z,1018.03
2018-02-06T06:20:25.003Z,1017.96
2018-02-06T06:21:25.008Z,1018.05
2018-02-06T06:22:24.949Z,1018.04
2018-02-06T06:23:25.023Z,1017.97
2018-02-06T06:24:24.967Z,1017.99
2018-02-06T06:25:24.974Z,1017.97
2018-02-06T06:26:25.045Z,1017.94
2018-02-06T06:27:35.115Z,1018.02
2018-02-06T06:28:24.935Z,1018.03
2018-02-06T06:29:24.949Z,1018
2018-02-06T06:30:24.964Z,1017.97
2018-02-06T06:31:24.966Z,1017.96
2018-02-06T06:32:24.973Z,1017.89
2018-02-06T06:33:24.988Z,1017.92
2018-02-06T06:34:25.077Z,1017.97
2018-02-06T06:35:24.983Z,1017.98
2018-02-06T06:36:25.001Z,1017.98
2018-02-06T06:37:25.022Z,1017.96
2018-02-06T06:38:25.060Z,1017.97
2018-02-06T06:39:25.012Z,1017.9
2018-02-06T06:40:24.925Z,1017.91
2018-02-06T06:41:24.918Z,1017.88
2018-02-06T06:42:25.011Z,1017.91
2018-02-06T06:43:24.997Z,1017.91
2018-02-06T06:44:24.990Z,1017.9
2018-02-06T06:45:25.052Z,1017.91
2018-02-06T06:46:24.912Z,1017.83
2018-02-06T06:47:25.089Z,1017.89
2018-02-06T06:48:25.073Z,1017.86
2018-02-06T06:49:24.988Z,1017.88
2018-02-06T06:50:24.988Z,1017.9
2018-02-06T06:51:24.995Z,1017.87
2018-02-06T06:52:25.045Z,1017.81
2018-02-06T06:53:25.008Z,1017.8
2018-02-06T06:54:25.007Z,1017.77
2018-02-06T06:55:25.039Z,1017.76
2018-02-06T06:56:25.004Z,1017.8
2018-02-06T06:57:25.125Z,1017.8
2018-02-06T06:58:25.038Z,1017.77
2018-02-06T06:59:24.975Z,1017.77
2018-02-06T07:00:25.043Z,1017.79
2018-02-06T07:01:24.969Z,1017.74
2018-02-06T07:02:25.014Z,1017.75
2018-02-06T07:03:25.024Z,1017.72
2018-02-06T07:04:24.969Z,1017.79
2018-02-06T07:05:24.940Z,1017.76
2018-02-06T07:06:24.923Z,1017.72
2018-02-06T07:07:24.915Z,1017.73
2018-02-06T07:08:25.009Z,1017.76
2018-02-06T07:09:25.023Z,1017.79
2018-02-06T07:10:24.990Z,1017.81
2018-02-06T07:11:25.044Z,1017.84
2018-02-06T07:12:25.050Z,1017.82
2018-02-06T07:13:25.415Z,1017.82
2018-02-06T07:14:25.062Z,1017.85
2018-02-06T07:15:25.044Z,1017.84
2018-02-06T07:16:25.071Z,1017.82
2018-02-06T07:17:25.037Z,1017.84
2018-02-06T07:18:25.100Z,1017.84
2018-02-06T07:19:25.076Z,1017.79
2018-02-06T07:20:25.005Z,1017.81
2018-02-06T07:21:25.066Z,1017.8
2018-02-06T07:22:25.047Z,1017.79
2018-02-06T07:23:25.036Z,1017.79
2018-02-06T07:24:25.061Z,1017.82
2018-02-06T07:25:25.048Z,1017.79
2018-02-06T07:26:25.075Z,1017.81
2018-02-06T07:27:25.020Z,1017.81
2018-02-06T07:28:25.122Z,1017.79
2018-02-06T07:29:25.063Z,1017.85
2018-02-06T07:30:25.080Z,1017.82
2018-02-06T07:31:25.056Z,1017.84
2018-02-06T07:32:25.066Z,1017.82
2018-02-06T07:33:25.049Z,1017.75
2018-02-06T07:34:25.105Z,1017.77
2018-02-06T07:35:25.081Z,1017.8
2018-02-06T07:36:25.041Z,1017.73
2018-02-06T07:37:25.120Z,1017.68
2018-02-06T07:38:25.066Z,1017.75
2018-02-06T07:39:25.038Z,1017.72
2018-02-06T07:40:25.100Z,1017.74
2018-02-06T07:41:25.083Z,1017.75
2018-02-06T07:42:25.112Z,1017.75
2018-02-06T07:43:25.139Z,1017.72
2018-02-06T07:44:25.182Z,1017.7
2018-02-06T07:45:25.114Z,1017.7
2018-02-06T07:46:25.084Z,1017.68
2018-02-06T07:47:25.095Z,1017.69
2018-02-06T07:48:25.080Z,1017.7
2018-02-06T07:49:25.187Z,1017.67
2018-02-06T07:50:25.140Z,1017.64
2018-02-06T07:51:25.137Z,1017.61
2018-02-06T07:52:25.198Z,1017.54
2018-02-06T07:53:25.142Z,1017.55
2018-02-06T07:54:25.137Z,1017.57
2018-02-06T07:55:25.030Z,1017.51
2018-02-06T07:56:25.050Z,1017.52
2018-02-06T07:57:25.090Z,1017.56
2018-02-06T07:58:25.121Z,1017.55
2018-02-06T07:59:25.065Z,1017.57
2018-02-06T08:00:25.101Z,1017.55
2018-02-06T08:01:25.119Z,1017.55
2018-02-06T08:02:25.168Z,1017.5
2018-02-06T08:03:25.156Z,1017.5
2018-02-06T08:04:25.190Z,1017.43
2018-02-06T08:05:25.414Z,1017.45
2018-02-06T08:06:25.101Z,1017.44
2018-02-06T08:07:25.121Z,1017.43
2018-02-06T08:08:25.114Z,1017.42
2018-02-06T08:09:25.062Z,1017.46
2018-02-06T08:10:25.129Z,1017.39
2018-02-06T08:11:25.085Z,1017.42
2018-02-06T08:12:25.020Z,1017.38
2018-02-06T08:13:25.048Z,1017.34
2018-02-06T08:14:24.974Z,1017.34
2018-02-06T08:15:24.961Z,1017.37
2018-02-06T08:16:25.058Z,1017.32
2018-02-06T08:17:24.971Z,1017.36
2018-02-06T08:18:25.002Z,1017.39
2018-02-06T08:19:25.036Z,1017.39
2018-02-06T08:20:25.043Z,1017.44
2018-02-06T08:21:24.971Z,1017.41
2018-02-06T08:22:24.954Z,1017.47
2018-02-06T08:23:25.006Z,1017.48
2018-02-06T08:24:24.996Z,1017.57
2018-02-06T08:25:25.017Z,1017.53
2018-02-06T08:26:25.005Z,1017.56
2018-02-06T08:27:24.964Z,1017.51
2018-02-06T08:28:25.023Z,1017.5
2018-02-06T08:29:25.078Z,1017.48
2018-02-06T08:30:25.027Z,1017.45
2018-02-06T08:31:24.984Z,1017.45
2018-02-06T08:32:25.026Z,1017.42
2018-02-06T08:33:25.021Z,1017.36
2018-02-06T08:34:25.015Z,1017.42
2018-02-06T08:35:24.995Z,1017.37
2018-02-06T08:36:25.004Z,1017.36
2018-02-06T08:37:25.010Z,1017.36
2018-02-06T08:38:25.037Z,1017.33
2018-02-06T08:39:25.012Z,1017.39
2018-02-06T08:40:24.967Z,1017.34
2018-02-06T08:41:25.007Z,1017.35
2018-02-06T08:42:25.000Z,1017.34
2018-02-06T08:43:25.014Z,1017.36
2018-02-06T08:44:25.003Z,1017.36
2018-02-06T08:45:24.985Z,1017.35
2018-02-06T08:46:24.929Z,1017.4
2018-02-06T08:47:24.951Z,1017.37
2018-02-06T08:48:25.009Z,1017.42
2018-02-06T08:49:24.946Z,1017.42
2018-02-06T08:50:24.933Z,1017.38
2018-02-06T08:51:24.938Z,1017.36
2018-02-06T08:52:24.956Z,1017.3
2018-02-06T08:53:24.971Z,1017.29
2018-02-06T08:54:24.959Z,1017.31
2018-02-06T08:55:24.991Z,1017.23
2018-02-06T08:56:24.958Z,1017.25
2018-02-06T08:57:24.962Z,1017.18
2018-02-06T08:58:24.976Z,1017.2
2018-02-06T08:59:24.967Z,1017.18
2018-02-06T09:00:24.945Z,1017.28
2018-02-06T09:01:25.000Z,1017.25
2018-02-06T09:02:24.944Z,1017.26
2018-02-06T09:03:24.930Z,1017.28
2018-02-06T09:04:24.971Z,1017.25
2018-02-06T09:05:24.965Z,1017.22
2018-02-06T09:06:24.995Z,1017.24
2018-02-06T09:07:24.996Z,1017.26
2018-02-06T09:08:24.952Z,1017.25
2018-02-06T09:09:24.933Z,1017.24
2018-02-06T09:10:24.966Z,1017.21
2018-02-06T09:11:25.682Z,1017.26
2018-02-06T09:12:24.957Z,1017.26
2018-02-06T09:13:24.954Z,1017.26
2018-02-06T09:14:24.823Z,1017.22
2018-02-06T09:15:24.827Z,1017.18
2018-02-06T09:16:24.804Z,1017.16
2018-02-06T09:17:24.793Z,1017.18
2018-02-06T09:18:24.811Z,1017.14
2018-02-06T09:19:24.815Z,1017.15
2018-02-06T09:20:24.853Z,1017.11
2018-02-06T09:21:24.835Z,1017.14
2018-02-06T09:22:24.842Z,1017.13
2018-02-06T09:23:24.870Z,1017.09
2018-02-06T09:24:24.862Z,1017.11
2018-02-06T09:25:24.787Z,1017.07
2018-02-06T09:26:24.794Z,1017.07
2018-02-06T09:27:24.793Z,1017.04
2018-02-06T09:28:24.851Z,1017.05
2018-02-06T09:29:24.815Z,1017.09
2018-02-06T09:30:24.818Z,1017.1
2018-02-06T09:31:24.848Z,1017.12
2018-02-06T09:32:24.833Z,1017.13
2018-02-06T09:33:24.864Z,1017.13
2018-02-06T09:34:24.802Z,1017.18
2018-02-06T09:35:24.786Z,1017.16
2018-02-06T09:36:24.814Z,1017.16
2018-02-06T09:37:24.782Z,1017.18
2018-02-06T09:38:24.818Z,1017.14
2018-02-06T09:39:24.791Z,1017.13
2018-02-06T09:40:24.786Z,1017.12
2018-02-06T09:41:24.807Z,1017.13
2018-02-06T09:42:24.838Z,1017.11
2018-02-06T09:43:24.894Z,1017.12
2018-02-06T09:44:24.832Z,1017.1
2018-02-06T09:45:24.701Z,1017.04
2018-02-06T09:46:24.681Z,1017.05
2018-02-06T09:47:24.699Z,1017.06
2018-02-06T09:48:24.728Z,1017.05
2018-02-06T09:49:24.682Z,1017.05
2018-02-06T09:50:24.735Z,1017.01
2018-02-06T09:51:24.725Z,1017.01
2018-02-06T09:52:24.755Z,1017.04
2018-02-06T09:53:24.706Z,1017.02
2018-02-06T09:54:24.730Z,1017.01
2018-02-06T09:55:24.755Z,1017
2018-02-06T09:56:24.738Z,1017.05
2018-02-06T09:57:24.715Z,1017.04
2018-02-06T09:58:24.684Z,1017.03
2018-02-06T09:59:24.694Z,1017.01
2018-02-06T10:00:24.675Z,1017
2018-02-06T10:01:24.692Z,1016.96
2018-02-06T10:02:24.686Z,1017.02
2018-02-06T10:03:24.733Z,1016.99
2018-02-06T10:04:24.786Z,1017
2018-02-06T10:05:24.663Z,1016.97
2018-02-06T10:06:24.712Z,1016.93
2018-02-06T10:07:25.444Z,1016.95
2018-02-06T10:08:24.812Z,1016.9
2018-02-06T10:09:24.724Z,1016.92
2018-02-06T10:10:24.744Z,1016.92
2018-02-06T10:11:24.772Z,1016.92
2018-02-06T10:12:24.746Z,1016.87
2018-02-06T10:13:24.723Z,1016.86
2018-02-06T10:14:24.682Z,1016.83
2018-02-06T10:15:24.700Z,1016.8
2018-02-06T10:16:24.764Z,1016.86
2018-02-06T10:17:24.783Z,1016.82
2018-02-06T10:18:24.739Z,1016.78
2018-02-06T10:19:24.759Z,1016.77
2018-02-06T10:20:24.707Z,1016.73
2018-02-06T10:21:24.690Z,1016.72
2018-02-06T10:22:24.745Z,1016.75
2018-02-06T10:23:24.766Z,1016.75
2018-02-06T10:24:24.717Z,1016.74
2018-02-06T10:25:24.744Z,1016.72
2018-02-06T10:26:24.718Z,1016.69
2018-02-06T10:27:24.725Z,1016.68
2018-02-06T10:28:24.727Z,1016.72
2018-02-06T10:29:24.760Z,1016.7
2018-02-06T10:30:24.712Z,1016.62
2018-02-06T10:31:24.724Z,1016.6
2018-02-06T10:32:24.856Z,1016.61
2018-02-06T10:33:24.743Z,1016.57
2018-02-06T10:34:24.745Z,1016.61
2018-02-06T10:35:24.768Z,1016.58
2018-02-06T10:36:24.733Z,1016.57
2018-02-06T10:37:24.714Z,1016.55
2018-02-06T10:38:24.692Z,1016.55
2018-02-06T10:39:25.059Z,1016.56
2018-02-06T10:40:24.781Z,1016.45
2018-02-06T10:41:24.733Z,1016.47
2018-02-06T10:42:24.714Z,1016.44
2018-02-06T10:43:24.735Z,1016.45
2018-02-06T10:44:24.740Z,1016.42
2018-02-06T10:45:24.749Z,1016.45
2018-02-06T10:46:24.720Z,1016.43
2018-02-06T10:47:24.558Z,1016.44
2018-02-06T10:48:24.549Z,1016.42
2018-02-06T10:49:24.572Z,1016.38
2018-02-06T10:50:24.564Z,1016.39
2018-02-06T10:51:24.574Z,1016.37
2018-02-06T10:52:24.536Z,1016.34
2018-02-06T10:53:24.542Z,1016.29
2018-02-06T10:54:24.559Z,1016.33
2018-02-06T10:55:24.526Z,1016.3
2018-02-06T10:56:24.529Z,1016.28
2018-02-06T10:57:24.515Z,1016.28
2018-02-06T10:58:24.522Z,1016.25
2018-02-06T10:59:24.590Z,1016.25
2018-02-06T11:00:24.557Z,1016.22
2018-02-06T11:01:24.565Z,1016.17
2018-02-06T11:02:24.551Z,1016.2
2018-02-06T11:03:24.548Z,1016.15
2018-02-06T11:04:24.579Z,1016.25
2018-02-06T11:05:24.587Z,1016.17
2018-02-06T11:06:24.545Z,1016.2
2018-02-06T11:07:24.526Z,1016.15
2018-02-06T11:08:24.533Z,1016.15
2018-02-06T11:09:24.561Z,1016.17
2018-02-06T11:10:24.567Z,1016.15
2018-02-06T11:11:24.541Z,1016.08
2018-02-06T11:12:24.613Z,1016.05
2018-02-06T11:13:24.528Z,1016.03
2018-02-06T11:14:24.562Z,1016.03
2018-02-06T11:15:24.537Z,1015.98
2018-02-06T11:16:24.581Z,1015.96
2018-02-06T11:17:24.552Z,1015.98
2018-02-06T11:18:24.500Z,1015.95
2018-02-06T11:19:24.406Z,1015.93
2018-02-06T11:20:24.386Z,1015.96
2018-02-06T11:21:24.370Z,1015.98
2018-02-06T11:22:24.377Z,1015.91
2018-02-06T11:23:24.387Z,1015.93
2018-02-06T11:24:24.437Z,1015.93
2018-02-06T11:25:24.375Z,1015.92
2018-02-06T11:26:24.370Z,1015.87
2018-02-06T11:27:24.354Z,1015.92
2018-02-06T11:28:24.406Z,1015.92
2018-02-06T11:29:24.369Z,1015.88
2018-02-06T11:30:24.406Z,1015.94
2018-02-06T11:31:24.383Z,1015.88
2018-02-06T11:32:24.426Z,1015.87
2018-02-06T11:33:24.440Z,1015.82
2018-02-06T11:34:24.371Z,1015.8
2018-02-06T11:35:24.370Z,1015.83
2018-02-06T11:36:24.472Z,1015.82
2018-02-06T11:37:24.424Z,1015.81
2018-02-06T11:38:24.372Z,1015.77
2018-02-06T11:39:24.431Z,1015.75
2018-02-06T11:40:24.373Z,1015.76
2018-02-06T11:41:24.406Z,1015.75
2018-02-06T11:42:24.414Z,1015.76
2018-02-06T11:43:24.367Z,1015.8
2018-02-06T11:44:24.608Z,1015.76
2018-02-06T11:45:24.376Z,1015.8
2018-02-06T11:46:24.367Z,1015.75
2018-02-06T11:47:24.400Z,1015.74
2018-02-06T11:48:24.473Z,1015.68
2018-02-06T11:49:24.420Z,1015.65
2018-02-06T11:50:24.557Z,1015.6
2018-02-06T11:51:24.404Z,1015.58
2018-02-06T11:52:24.458Z,1015.53
2018-02-06T11:53:24.439Z,1015.56
2018-02-06T11:54:24.394Z,1015.56
2018-02-06T11:55:24.408Z,1015.54
2018-02-06T11:56:24.420Z,1015.52
2018-02-06T11:57:24.443Z,1015.56
2018-02-06T11:58:24.497Z,1015.5
2018-02-06T11:59:24.456Z,1015.5
2018-02-06T12:00:24.488Z,1015.51
2018-02-06T12:01:24.401Z,1015.5
2018-02-06T12:02:24.404Z,1015.59
2018-02-06T12:03:24.425Z,1015.55
2018-02-06T12:04:24.463Z,1015.53
2018-02-06T12:05:24.395Z,1015.55
2018-02-06T12:06:24.411Z,1015.55
2018-02-06T12:07:24.407Z,1015.57
2018-02-06T12:08:24.414Z,1015.6
2018-02-06T12:09:24.508Z,1015.56
2018-02-06T12:10:24.441Z,1015.56
2018-02-06T12:11:24.478Z,1015.56
2018-02-06T12:12:24.410Z,1015.56
2018-02-06T12:13:24.505Z,1015.56
2018-02-06T12:14:24.479Z,1015.61
2018-02-06T12:15:24.523Z,1015.55
2018-02-06T12:16:24.429Z,1015.57
2018-02-06T12:17:24.464Z,1015.57
2018-02-06T12:18:24.382Z,1015.62
2018-02-06T12:19:24.448Z,1015.58
2018-02-06T12:20:24.258Z,1015.59
2018-02-06T12:21:24.663Z,1015.58
2018-02-06T12:22:24.269Z,1015.55
2018-02-06T12:23:24.266Z,1015.52
2018-02-06T12:24:24.320Z,1015.49
2018-02-06T12:25:24.270Z,1015.52
2018-02-06T12:26:24.299Z,1015.53
2018-02-06T12:27:24.285Z,1015.46
2018-02-06T12:28:24.302Z,1015.43
2018-02-06T12:29:24.267Z,1015.33
2018-02-06T12:30:24.281Z,1015.29
2018-02-06T12:31:24.313Z,1015.28
2018-02-06T12:32:24.283Z,1015.33
2018-02-06T12:33:24.253Z,1015.24
2018-02-06T12:34:24.305Z,1015.28
2018-02-06T12:35:24.276Z,1015.26
2018-02-06T12:36:24.326Z,1015.22
2018-02-06T12:37:24.297Z,1015.2
2018-02-06T12:38:24.268Z,1015.2
2018-02-06T12:39:24.301Z,1015.12
2018-02-06T12:40:24.289Z,1015.09
2018-02-06T12:41:24.276Z,1015.07
2018-02-06T12:42:24.316Z,1015.05
2018-02-06T12:43:24.334Z,1015.05
2018-02-06T12:44:24.377Z,1015.05
2018-02-06T12:45:24.315Z,1015.04
2018-02-06T12:46:24.267Z,1015.02
2018-02-06T12:47:24.328Z,1015.05
2018-02-06T12:48:24.295Z,1015.04
2018-02-06T12:49:24.275Z,1014.96
2018-02-06T12:50:24.301Z,1014.99
2018-02-06T12:51:24.099Z,1014.99
2018-02-06T12:52:24.136Z,1014.99
2018-02-06T12:53:24.112Z,1015.01
2018-02-06T12:54:24.161Z,1015.01
2018-02-06T12:55:24.158Z,1014.91
2018-02-06T12:56:24.116Z,1014.88
2018-02-06T12:57:24.385Z,1014.83
2018-02-06T12:58:24.122Z,1014.83
2018-02-06T12:59:24.163Z,1014.86
2018-02-06T13:00:24.141Z,1014.86
2018-02-06T13:01:24.122Z,1014.87
2018-02-06T13:02:24.152Z,1014.81
2018-02-06T13:03:24.130Z,1014.79
2018-02-06T13:04:24.190Z,1014.8
2018-02-06T13:05:24.169Z,1014.8
2018-02-06T13:06:24.199Z,1014.77
2018-02-06T13:07:24.129Z,1014.78
2018-02-06T13:08:24.180Z,1014.76
2018-02-06T13:09:24.164Z,1014.75
2018-02-06T13:10:24.097Z,1014.75
2018-02-06T13:11:24.154Z,1014.76
2018-02-06T13:12:24.148Z,1014.76
2018-02-06T13:13:24.192Z,1014.77
2018-02-06T13:14:24.139Z,1014.82
2018-02-06T13:15:24.139Z,1014.85
2018-02-06T13:16:24.140Z,1014.81
2018-02-06T13:17:24.161Z,1014.8
2018-02-06T13:18:24.160Z,1014.78
2018-02-06T13:19:24.162Z,1014.76
2018-02-06T13:20:24.117Z,1014.76
2018-02-06T13:21:24.124Z,1014.77
2018-02-06T13:22:24.915Z,1014.73
2018-02-06T13:23:24.902Z,1014.77
2018-02-06T13:24:24.888Z,1014.74
2018-02-06T13:25:24.908Z,1014.7
2018-02-06T13:26:24.905Z,1014.74
2018-02-06T13:27:24.902Z,1014.78
2018-02-06T13:28:24.914Z,1014.77
2018-02-06T13:29:24.899Z,1014.77
2018-02-06T13:30:24.940Z,1014.77
2018-02-06T13:31:24.889Z,1014.7
2018-02-06T13:32:24.896Z,1014.71
2018-02-06T13:33:24.881Z,1014.68
2018-02-06T13:34:24.891Z,1014.67
2018-02-06T13:35:24.874Z,1014.63
2018-02-06T13:36:24.930Z,1014.63
2018-02-06T13:37:25.002Z,1014.67
2018-02-06T13:38:24.937Z,1014.62
2018-02-06T13:39:24.916Z,1014.6
2018-02-06T13:40:24.877Z,1014.64
2018-02-06T13:41:24.905Z,1014.61
2018-02-06T13:42:24.873Z,1014.59
2018-02-06T13:43:24.880Z,1014.59
2018-02-06T13:44:25.085Z,1014.57
2018-02-06T13:45:24.897Z,1014.6
2018-02-06T13:46:24.891Z,1014.53
2018-02-06T13:47:24.871Z,1014.57
2018-02-06T13:48:24.906Z,1014.56
2018-02-06T13:49:24.937Z,1014.52
2018-02-06T13:50:24.894Z,1014.5
2018-02-06T13:51:24.993Z,1014.5
2018-02-06T13:52:24.840Z,1014.46
2018-02-06T13:53:24.861Z,1014.48
2018-02-06T13:54:25.155Z,1014.43
2018-02-06T13:55:24.879Z,1014.42
2018-02-06T13:56:24.860Z,1014.48
2018-02-06T13:57:24.885Z,1014.46
2018-02-06T13:58:24.804Z,1014.41
2018-02-06T13:59:24.867Z,1014.41
2018-02-06T14:00:24.831Z,1014.39
2018-02-06T14:01:24.872Z,1014.35
2018-02-06T14:02:24.950Z,1014.36
2018-02-06T14:03:24.872Z,1014.34
2018-02-06T14:04:24.913Z,1014.32
2018-02-06T14:05:24.891Z,1014.29
2018-02-06T14:06:24.889Z,1014.27
2018-02-06T14:07:24.879Z,1014.26
2018-02-06T14:08:24.848Z,1014.27
2018-02-06T14:09:24.873Z,1014.28
2018-02-06T14:10:24.878Z,1014.3
2018-02-06T14:11:24.896Z,1014.29
2018-02-06T14:12:24.852Z,1014.31
2018-02-06T14:13:24.895Z,1014.31